CDT,Max TemperatureF,Mean TemperatureF,Min TemperatureF,Max Dew PointF,MeanDew PointF,Min DewpointF,Max Humidity, Mean Humidity, Min Humidity, Max Sea Level PressureIn, Mean Sea Level PressureIn, Min Sea Level PressureIn, Max VisibilityMiles, Mean VisibilityMiles, Min VisibilityMiles, Max Wind SpeedMPH, Mean Wind SpeedMPH, Max Gust SpeedMPH,PrecipitationIn, CloudCover, Events, WindDirDegrees
2013-10-1,81,78,75,77,74,72,94,87,77,29.94,29.89,29.83,10,8,1,16,7,28,0.99,5,Rain-Thunderstorm,165
2013-10-2,88,82,77,76,75,73,90,80,65,29.96,29.92,29.88,10,9,6,13,8,,0.00,1,,146
2013-10-3,87,82,78,75,74,72,88,76,63,29.95,29.90,29.88,10,10,10,13,7,,0.00,1,,162
2013-10-4,88,82,77,74,73,71,90,75,61,29.93,29.90,29.88,10,9,8,13,8,17,0.00,0,,152
2013-10-5,89,81,70,77,72,60,94,76,53,29.95,29.90,29.84,10,7,4,22,5,29,0.00,1,,173
2013-10-6,79,67,55,56,52,47,94,69,32,30.09,30.04,29.96,10,8,1,24,17,75,0.66,3,Rain,352
2013-10-7,82,67,52,53,47,41,86,54,24,30.14,30.09,30.04,10,10,10,13,7,20,0.00,0,,354
2013-10-8,82,68,54,60,53,44,90,64,26,30.09,30.04,30.00,10,10,10,9,4,61,0.00,0,,95
2013-10-9,82,72,61,65,61,56,90,71,47,30.06,30.01,29.98,10,10,9,10,5,,0.00,0,,111
2013-10-10,86,75,66,69,67,63,90,74,55,30.04,29.99,29.93,10,10,10,33,9,85,0.00,1,,111
2013-10-11,88,80,73,77,73,69,93,79,65,29.96,29.91,29.88,10,10,6,16,10,22,0.01,4,Rain,144
2013-10-12,88,82,78,78,76,74,94,86,72,30.02,29.96,29.90,10,9,7,16,7,24,0.00,4,,145
2013-10-13,84,78,73,77,75,72,100,90,70,30.11,30.06,30.01,10,8,2,15,7,,0.32,5,Rain-Thunderstorm,95
2013-10-14,86,78,73,74,72,69,97,81,61,30.07,30.01,29.96,10,8,4,68,9,21,0.03,2,Rain,122
2013-10-15,86,80,75,73,71,69,88,76,61,29.98,29.94,29.89,10,7,5,13,8,,0.00,1,,159
2013-10-16,79,72,63,71,65,59,94,84,74,30.03,29.96,29.88,10,8,2,16,10,26,0.00,6,Rain,346
2013-10-17,80,70,61,61,57,53,94,72,45,30.08,30.01,29.96,10,10,6,17,12,88,0.00,3,,7
2013-10-18,75,68,61,70,65,59,93,83,69,29.99,29.91,29.85,10,10,9,17,9,28,0.00,7,Rain,57
2013-10-19,72,62,54,65,56,46,94,77,42,30.12,30.03,29.92,10,10,2,24,16,86,0.28,4,Rain,356
2013-10-20,75,62,48,60,53,45,90,74,53,30.09,30.02,29.94,10,10,10,9,6,16,0.00,1,,64
2013-10-21,75,67,61,72,67,59,97,91,87,29.97,29.93,29.89,10,8,2,12,6,,0.31,6,Rain-Thunderstorm,62
2013-10-22,78,66,55,67,59,50,100,81,41,30.11,30.04,29.97,10,8,4,20,10,24,0.02,4,,348
2013-10-23,81,66,52,59,51,43,87,60,27,30.18,30.12,30.09,10,7,2,8,4,,0.00,0,,174
2013-10-24,82,68,54,61,57,52,93,72,40,30.22,30.17,30.13,10,10,8,13,4,,0.00,0,,62
2013-10-25,82,69,57,65,61,55,96,80,58,30.30,30.25,30.21,10,9,5,18,8,22,0.00,0,,58
2013-10-26,82,72,61,66,64,59,97,77,54,30.21,30.15,30.09,10,9,5,20,9,24,0.01,1,,110
2013-10-27,81,74,66,70,65,62,94,78,60,30.11,30.06,30.00,10,10,9,20,7,25,0.00,4,,94
2013-10-28,84,74,66,72,68,64,100,81,60,30.09,30.05,30.01,10,8,5,20,8,25,0.00,3,,110
2013-10-29,84,78,73,73,70,69,94,77,63,30.11,30.06,30.02,10,10,7,20,11,24,0.00,3,,141
2013-10-30,84,80,77,77,75,73,94,85,74,30.03,29.95,29.86,10,9,6,17,13,25,0.05,7,,154
2013-10-31,80,74,68,76,74,66,100,91,82,29.90,29.84,29.79,10,5,1,26,13,47,2.48,7,Rain-Thunderstorm,185